createdAt,value
2022-11-29T00:00:07.519Z,32.90
2022-11-29T00:00:49.722Z,34.22
2022-11-29T00:01:25.589Z,26.70
2022-11-29T00:01:57.755Z,29.55
2022-11-29T00:02:29.812Z,27.55
2022-11-29T00:03:02.096Z,25.15
2022-11-29T00:03:34.583Z,29.20
2022-11-29T00:04:06.968Z,39.58
2022-11-29T00:04:38.896Z,31.30
2022-11-29T00:05:10.887Z,34.85
2022-11-29T00:05:42.754Z,25.85
2022-11-29T00:06:17.520Z,27.40
2022-11-29T00:06:49.651Z,33.58
2022-11-29T00:07:21.561Z,26.60
2022-11-29T00:07:53.563Z,26.10
2022-11-29T00:08:25.490Z,27.10
2022-11-29T00:09:03.570Z,28.55
2022-11-29T00:09:35.403Z,35.60
2022-11-29T00:10:08.110Z,28.67
2022-11-29T00:10:40.009Z,30.90
2022-11-29T00:11:36.335Z,26.45
2022-11-29T00:12:12.201Z,26.50
2022-11-29T00:12:46.341Z,30.83
2022-11-29T00:13:18.179Z,34.10
2022-11-29T00:13:50.148Z,29.98
2022-11-29T00:14:22.970Z,31.25
2022-11-29T00:14:54.914Z,32.78
2022-11-29T00:15:26.740Z,28.25
2022-11-29T00:16:05.717Z,31.52
2022-11-29T00:16:37.606Z,33.55
2022-11-29T00:17:09.863Z,27.45
2022-11-29T00:17:41.811Z,32.47
2022-11-29T00:18:13.648Z,29.83
2022-11-29T00:18:45.506Z,31.95
2022-11-29T00:19:17.368Z,29.63
2022-11-29T00:19:49.196Z,32.10
2022-11-29T00:20:21.032Z,31.17
2022-11-29T00:20:52.853Z,31.08
2022-11-29T00:21:24.708Z,34.97
2022-11-29T00:21:56.713Z,31.73
2022-11-29T00:22:29.376Z,36.50
2022-11-29T00:23:01.721Z,25.08
2022-11-29T00:23:34.097Z,27.35
2022-11-29T00:24:06.349Z,27.75
2022-11-29T00:24:38.190Z,27.25
2022-11-29T00:25:10.048Z,31.35
2022-11-29T00:25:41.903Z,30.33
2022-11-29T00:26:13.737Z,32.67
2022-11-29T00:26:45.818Z,26.52
2022-11-29T00:27:18.419Z,30.12
2022-11-29T00:27:51.557Z,29.60
2022-11-29T00:28:23.465Z,25.48
2022-11-29T00:28:55.316Z,26.30
2022-11-29T00:29:27.758Z,25.27
2022-11-29T00:29:59.793Z,27.80
2022-11-29T00:30:31.775Z,28.25
2022-11-29T00:31:15.570Z,29.92
2022-11-29T00:31:47.519Z,29.00
2022-11-29T00:32:19.384Z,33.15
2022-11-29T00:32:51.526Z,28.73
2022-11-29T00:33:23.401Z,24.40
2022-11-29T00:33:57.071Z,25.88
2022-11-29T00:34:28.971Z,22.40
2022-11-29T00:35:05.227Z,23.98
2022-11-29T00:35:40.071Z,35.95
2022-11-29T00:36:12.771Z,24.23
2022-11-29T00:36:44.665Z,23.85
2022-11-29T00:37:16.495Z,30.52
2022-11-29T00:37:48.391Z,30.25
2022-11-29T00:38:20.552Z,27.00
2022-11-29T00:38:52.459Z,23.58
2022-11-29T00:39:24.448Z,26.95
2022-11-29T00:39:56.330Z,24.63
2022-11-29T00:40:28.183Z,27.17
2022-11-29T00:41:00.033Z,21.27
2022-11-29T00:41:32.606Z,27.37
2022-11-29T00:42:05.372Z,23.60
2022-11-29T00:42:37.256Z,23.85
2022-11-29T00:43:09.086Z,21.58
2022-11-29T00:43:41.681Z,22.67
2022-11-29T00:44:19.644Z,23.58
2022-11-29T00:44:52.159Z,23.33
2022-11-29T00:45:24.324Z,23.50
2022-11-29T00:45:56.357Z,26.25
2022-11-29T00:46:28.274Z,24.83
2022-11-29T00:47:00.250Z,22.10
2022-11-29T00:47:32.161Z,24.17
2022-11-29T00:48:04.246Z,24.08
2022-11-29T00:48:36.398Z,21.77
2022-11-29T00:49:08.615Z,21.75
2022-11-29T00:49:40.486Z,22.13
2022-11-29T00:50:12.493Z,26.85
2022-11-29T00:50:44.326Z,20.25
2022-11-29T00:51:16.191Z,22.30
2022-11-29T00:51:48.059Z,21.77
2022-11-29T00:52:19.920Z,23.08
2022-11-29T00:52:51.798Z,27.80
2022-11-29T00:53:23.757Z,23.62
2022-11-29T00:53:55.658Z,21.90
2022-11-29T00:54:27.958Z,22.42
2022-11-29T00:54:59.890Z,25.95
2022-11-29T00:55:31.761Z,23.02
2022-11-29T00:56:04.602Z,23.75
2022-11-29T00:56:36.583Z,28.90
2022-11-29T00:57:08.437Z,24.20
2022-11-29T00:57:40.385Z,23.23
2022-11-29T00:58:12.216Z,19.30
2022-11-29T00:58:44.170Z,24.98
2022-11-29T00:59:16.034Z,28.40
2022-11-29T00:59:48.165Z,24.30
2022-11-29T01:00:20.378Z,22.17
2022-11-29T01:00:53.570Z,22.67
2022-11-29T01:01:25.710Z,21.85
2022-11-29T01:01:57.721Z,20.42
2022-11-29T01:02:29.637Z,21.08
2022-11-29T01:03:02.104Z,24.30
2022-11-29T01:03:34.015Z,27.87
2022-11-29T01:04:05.951Z,23.23
2022-11-29T01:04:37.921Z,23.42
2022-11-29T01:05:10.152Z,20.35
2022-11-29T01:05:42.983Z,26.85
2022-11-29T01:06:17.335Z,29.90
2022-11-29T01:06:53.326Z,23.15
2022-11-29T01:07:25.328Z,22.48
2022-11-29T01:07:57.325Z,21.08
2022-11-29T01:08:29.267Z,19.50
2022-11-29T01:09:01.217Z,25.37
2022-11-29T01:09:33.064Z,19.25
2022-11-29T01:10:05.559Z,23.87
2022-11-29T01:10:38.112Z,23.62
2022-11-29T01:11:14.357Z,23.75
2022-11-29T01:11:46.301Z,23.98
2022-11-29T01:12:18.135Z,20.27
2022-11-29T01:12:50.089Z,21.62
2022-11-29T01:13:21.904Z,23.95
2022-11-29T01:13:57.308Z,23.45
2022-11-29T01:14:29.140Z,21.25
2022-11-29T01:15:00.998Z,23.30
2022-11-29T01:15:33.068Z,29.98
2022-11-29T01:16:06.458Z,19.77
2022-11-29T01:16:38.332Z,23.95
2022-11-29T01:17:10.519Z,29.63
2022-11-29T01:17:42.769Z,20.98
2022-11-29T01:18:15.527Z,23.08
2022-11-29T01:18:47.721Z,23.45
2022-11-29T01:19:19.607Z,25.45
2022-11-29T01:19:51.467Z,24.00
2022-11-29T01:20:23.336Z,26.02
2022-11-29T01:21:01.714Z,21.73
2022-11-29T01:21:34.093Z,22.02
2022-11-29T01:22:05.968Z,22.83
2022-11-29T01:22:39.481Z,21.58
2022-11-29T01:23:11.426Z,26.00
2022-11-29T01:23:44.496Z,23.33
2022-11-29T01:24:16.372Z,25.50
2022-11-29T01:24:48.444Z,24.30
2022-11-29T01:25:20.815Z,23.17
2022-11-29T01:26:01.598Z,24.50
2022-11-29T01:26:33.859Z,28.85
2022-11-29T01:27:05.765Z,24.50
2022-11-29T01:27:37.839Z,23.38
2022-11-29T01:28:09.662Z,30.17
2022-11-29T01:28:42.460Z,23.25
2022-11-29T01:29:14.395Z,23.77
2022-11-29T01:29:46.231Z,22.77
2022-11-29T01:30:18.120Z,24.23
2022-11-29T01:30:49.943Z,29.67
2022-11-29T01:31:24.440Z,27.62
2022-11-29T01:31:56.588Z,32.75
2022-11-29T01:32:28.517Z,25.52
2022-11-29T01:33:00.389Z,23.15
2022-11-29T01:33:32.390Z,21.40
2022-11-29T01:34:06.745Z,27.98
2022-11-29T01:34:39.262Z,24.83
2022-11-29T01:35:11.267Z,28.27
2022-11-29T01:35:54.827Z,23.15
2022-11-29T01:36:27.983Z,23.48
2022-11-29T01:37:00.412Z,28.08
2022-11-29T01:37:32.507Z,23.87
2022-11-29T01:38:04.401Z,25.37
2022-11-29T01:38:37.113Z,26.75
2022-11-29T01:39:09.023Z,23.70
2022-11-29T01:39:40.840Z,24.58
2022-11-29T01:40:13.907Z,24.15
2022-11-29T01:40:56.516Z,24.45
2022-11-29T01:41:31.866Z,22.20
2022-11-29T01:42:04.270Z,22.80
2022-11-29T01:42:36.124Z,24.90
2022-11-29T01:43:17.289Z,24.30
2022-11-29T01:44:00.338Z,30.88
2022-11-29T01:44:32.103Z,27.42
2022-11-29T01:45:25.384Z,27.13
2022-11-29T01:45:58.176Z,25.45
2022-11-29T01:46:38.462Z,28.70
2022-11-29T01:47:11.899Z,27.55
2022-11-29T01:47:46.296Z,27.35
2022-11-29T01:48:19.942Z,27.20
2022-11-29T01:48:56.910Z,28.55
2022-11-29T01:49:34.018Z,23.98
2022-11-29T01:50:08.141Z,26.12
2022-11-29T01:50:42.544Z,26.70
2022-11-29T01:51:14.931Z,33.58
2022-11-29T01:51:51.465Z,26.15
2022-11-29T01:52:28.460Z,25.17
2022-11-29T01:53:00.847Z,24.00
2022-11-29T01:53:33.173Z,26.52
2022-11-29T01:54:05.796Z,25.00
2022-11-29T01:54:41.721Z,25.37
2022-11-29T01:55:14.165Z,26.52
2022-11-29T01:55:53.597Z,27.77
2022-11-29T01:56:26.388Z,25.35
2022-11-29T01:56:59.416Z,26.02
2022-11-29T01:57:33.972Z,25.08
2022-11-29T01:58:07.720Z,23.17
2022-11-29T01:58:39.694Z,26.73
2022-11-29T01:59:19.265Z,25.75
2022-11-29T01:59:56.853Z,25.30
2022-11-29T02:00:30.037Z,28.15
2022-11-29T02:01:02.572Z,26.35
2022-11-29T02:01:35.891Z,27.50
2022-11-29T02:02:20.520Z,24.48
2022-11-29T02:02:58.460Z,25.77
2022-11-29T02:03:30.715Z,23.85
2022-11-29T02:04:03.325Z,27.05
2022-11-29T02:04:36.438Z,26.02
2022-11-29T02:05:09.215Z,22.73
2022-11-29T02:05:45.020Z,25.80
2022-11-29T02:06:16.895Z,27.40
2022-11-29T02:06:48.771Z,28.42
2022-11-29T02:07:20.684Z,24.73
2022-11-29T02:07:55.896Z,25.50
2022-11-29T02:08:39.214Z,28.38
2022-11-29T02:09:23.084Z,31.50
2022-11-29T02:09:55.054Z,31.00
2022-11-29T02:11:04.485Z,22.40
2022-11-29T02:11:57.580Z,23.85
2022-11-29T02:12:29.375Z,25.83
2022-11-29T02:13:11.534Z,22.75
2022-11-29T02:14:15.512Z,28.02
2022-11-29T02:14:56.935Z,25.73
2022-11-29T02:15:57.451Z,25.33
2022-11-29T02:16:52.226Z,33.42
2022-11-29T02:18:02.487Z,24.33
2022-11-29T02:19:04.003Z,26.35
2022-11-29T02:20:06.414Z,28.77
2022-11-29T02:20:47.557Z,27.83
2022-11-29T02:22:09.235Z,30.83
2022-11-29T02:22:57.205Z,27.95
2022-11-29T02:24:00.130Z,30.52
2022-11-29T02:24:44.094Z,28.75
2022-11-29T02:26:00.634Z,24.02
2022-11-29T02:27:10.656Z,25.75
2022-11-29T02:27:42.448Z,31.35
2022-11-29T02:28:47.929Z,34.90
2022-11-29T02:29:44.111Z,29.83
2022-11-29T02:30:39.382Z,23.75
2022-11-29T02:31:14.126Z,26.83
2022-11-29T02:32:04.292Z,26.33
2022-11-29T02:32:51.118Z,28.92
2022-11-29T02:33:52.953Z,28.85
2022-11-29T02:34:51.317Z,28.30
2022-11-29T02:35:41.766Z,27.67
2022-11-29T02:36:58.442Z,26.30
2022-11-29T02:37:55.424Z,29.02
2022-11-29T02:38:51.991Z,25.90
2022-11-29T02:39:35.587Z,28.20
2022-11-29T02:40:23.033Z,25.33
2022-11-29T02:41:17.984Z,29.67
2022-11-29T02:42:01.689Z,26.40
2022-11-29T02:42:56.412Z,24.48
2022-11-29T02:43:43.867Z,27.08
2022-11-29T02:44:44.921Z,26.65
2022-11-29T02:45:22.566Z,26.60
2022-11-29T02:46:12.878Z,28.05
2022-11-29T02:46:47.703Z,31.25
2022-11-29T02:47:46.275Z,27.52
2022-11-29T02:49:03.413Z,25.85
2022-11-29T02:49:52.793Z,28.05
2022-11-29T02:50:41.467Z,27.67
2022-11-29T02:51:24.690Z,29.98
2022-11-29T02:52:05.037Z,30.25
2022-11-29T02:52:46.526Z,24.95
2022-11-29T02:53:47.720Z,29.48
2022-11-29T02:54:53.077Z,23.08
2022-11-29T02:55:47.613Z,18.73
2022-11-29T02:56:25.274Z,25.88
2022-11-29T02:57:09.173Z,25.60
2022-11-29T02:57:54.363Z,25.02
2022-11-29T02:58:51.348Z,19.30
2022-11-29T02:59:46.256Z,23.23
2022-11-29T03:00:23.373Z,24.42
2022-11-29T03:01:07.062Z,21.48
2022-11-29T03:02:07.084Z,23.30
2022-11-29T03:03:08.767Z,22.85
2022-11-29T03:03:53.130Z,21.48
2022-11-29T03:04:34.669Z,24.02
2022-11-29T03:05:25.073Z,21.62
2022-11-29T03:06:22.946Z,19.92
2022-11-29T03:07:22.513Z,24.17
2022-11-29T03:08:31.794Z,21.67
2022-11-29T03:09:33.155Z,20.83
2022-11-29T03:10:20.873Z,22.08
2022-11-29T03:10:57.540Z,19.75
2022-11-29T03:11:45.165Z,21.15
2022-11-29T03:12:31.797Z,20.25
2022-11-29T03:13:10.499Z,24.77
2022-11-29T03:14:10.000Z,22.17
2022-11-29T03:14:59.779Z,21.42
2022-11-29T03:15:38.789Z,22.45
2022-11-29T03:16:22.728Z,23.12
2022-11-29T03:17:07.417Z,24.02
2022-11-29T03:18:00.965Z,20.37
2022-11-29T03:18:56.076Z,24.08
2022-11-29T03:19:55.246Z,20.30
2022-11-29T03:20:56.432Z,20.48
2022-11-29T03:21:50.160Z,24.45
2022-11-29T03:22:40.349Z,20.70
2022-11-29T03:23:33.679Z,23.38
2022-11-29T03:24:14.760Z,19.98
2022-11-29T03:24:55.612Z,24.05
2022-11-29T03:25:40.056Z,26.92
2022-11-29T03:26:15.524Z,21.42
2022-11-29T03:27:01.551Z,22.30
2022-11-29T03:27:43.874Z,20.33
2022-11-29T03:28:21.031Z,21.90
2022-11-29T03:29:09.602Z,19.67
2022-11-29T03:29:58.631Z,20.37
2022-11-29T03:30:34.526Z,22.73
2022-11-29T03:31:18.377Z,20.30
2022-11-29T03:32:02.541Z,20.88
2022-11-29T03:32:45.691Z,23.98
2022-11-29T03:33:43.278Z,20.37
2022-11-29T03:34:26.953Z,19.75
2022-11-29T03:35:01.411Z,23.80
2022-11-29T03:35:39.562Z,20.55
2022-11-29T03:36:28.944Z,19.65
2022-11-29T03:37:12.568Z,23.62
2022-11-29T03:38:19.232Z,23.08
2022-11-29T03:38:55.062Z,18.55
2022-11-29T03:39:45.079Z,20.48
2022-11-29T03:40:25.569Z,19.10
2022-11-29T03:41:57.209Z,24.40
2022-11-29T03:42:36.227Z,26.42
2022-11-29T03:43:17.070Z,19.58
2022-11-29T03:44:39.840Z,20.98
2022-11-29T03:45:24.953Z,24.15
2022-11-29T03:46:03.485Z,21.23
2022-11-29T03:46:44.000Z,18.55
2022-11-29T03:47:23.743Z,20.12
2022-11-29T03:48:07.384Z,21.42
2022-11-29T03:48:59.497Z,21.50
2022-11-29T03:49:37.781Z,21.62
2022-11-29T03:50:25.995Z,22.75
2022-11-29T03:51:12.503Z,21.98
2022-11-29T03:51:56.385Z,27.58
2022-11-29T03:52:38.552Z,21.05
2022-11-29T03:53:36.011Z,19.40
2022-11-29T03:54:16.488Z,21.05
2022-11-29T03:55:14.482Z,20.48
2022-11-29T03:55:48.975Z,23.15
2022-11-29T03:56:32.123Z,25.12
2022-11-29T03:57:04.316Z,21.58
2022-11-29T03:58:17.540Z,25.52
2022-11-29T03:59:10.586Z,23.58
2022-11-29T03:59:51.030Z,23.48
2022-11-29T04:00:23.763Z,21.20
2022-11-29T04:01:21.546Z,21.10
2022-11-29T04:02:08.706Z,21.73
2022-11-29T04:03:01.073Z,22.05
2022-11-29T04:03:50.926Z,23.92
2022-11-29T04:04:40.949Z,20.37
2022-11-29T04:05:21.985Z,23.40
2022-11-29T04:06:16.302Z,22.25
2022-11-29T04:07:30.061Z,21.98
2022-11-29T04:08:39.512Z,22.52
2022-11-29T04:09:40.263Z,25.05
2022-11-29T04:10:29.991Z,22.90
2022-11-29T04:11:31.397Z,25.70
2022-11-29T04:12:22.261Z,22.73
2022-11-29T04:13:27.628Z,20.65
2022-11-29T04:14:27.093Z,23.17
2022-11-29T04:15:16.622Z,22.23
2022-11-29T04:16:07.610Z,25.98
2022-11-29T04:17:03.526Z,24.92
2022-11-29T04:17:45.107Z,31.35
2022-11-29T04:18:29.080Z,21.60
2022-11-29T04:19:31.988Z,24.75
2022-11-29T04:20:21.862Z,21.75
2022-11-29T04:21:08.539Z,22.42
2022-11-29T04:22:19.390Z,24.73
2022-11-29T04:23:25.650Z,27.52
2022-11-29T04:24:20.815Z,26.73
2022-11-29T04:25:07.713Z,28.92
2022-11-29T04:25:54.775Z,26.62
2022-11-29T04:26:40.155Z,26.00
2022-11-29T04:27:33.067Z,25.08
2022-11-29T04:28:47.066Z,29.33
2022-11-29T04:29:43.784Z,24.98
2022-11-29T04:30:23.705Z,27.90
2022-11-29T04:31:13.614Z,30.85
2022-11-29T04:32:10.364Z,29.20
2022-11-29T04:33:03.189Z,24.95
2022-11-29T04:34:00.374Z,26.55
2022-11-29T04:34:47.501Z,26.33
2022-11-29T04:35:43.951Z,23.50
2022-11-29T04:36:38.681Z,29.20
2022-11-29T04:37:37.891Z,26.00
2022-11-29T04:38:47.901Z,27.85
2022-11-29T04:39:48.924Z,26.95
2022-11-29T04:40:49.972Z,30.05
2022-11-29T04:41:36.610Z,29.20
2022-11-29T04:42:23.584Z,21.95
2022-11-29T04:43:27.614Z,27.75
2022-11-29T04:44:36.922Z,24.63
2022-11-29T04:45:36.457Z,32.30
2022-11-29T04:46:39.257Z,36.10
2022-11-29T04:47:19.723Z,69.80
2022-11-29T04:48:13.924Z,47.65
2022-11-29T04:48:51.675Z,72.60
2022-11-29T04:49:52.741Z,80.10
2022-11-29T04:50:40.082Z,34.05
2022-11-29T04:51:30.053Z,52.10
2022-11-29T04:52:29.602Z,37.00
2022-11-29T04:53:22.361Z,31.20
2022-11-29T04:54:15.999Z,40.10
2022-11-29T04:55:06.539Z,36.05
2022-11-29T04:56:04.307Z,28.42
2022-11-29T04:57:08.253Z,27.33
2022-11-29T04:57:45.723Z,30.15
2022-11-29T04:58:32.783Z,30.27
2022-11-29T04:59:24.812Z,32.97
2022-11-29T05:00:08.028Z,35.13
2022-11-29T05:00:51.936Z,46.85
2022-11-29T05:02:11.552Z,40.12
2022-11-29T05:02:59.690Z,30.12
2022-11-29T05:03:39.087Z,34.80
2022-11-29T05:04:16.389Z,33.75
2022-11-29T05:04:53.763Z,33.88
2022-11-29T05:05:43.201Z,31.67
2022-11-29T05:06:35.159Z,28.92
2022-11-29T05:07:18.783Z,35.38
2022-11-29T05:07:53.287Z,30.83
2022-11-29T05:08:56.709Z,41.75
2022-11-29T05:09:55.338Z,35.55
2022-11-29T05:11:01.208Z,30.05
2022-11-29T05:12:14.895Z,64.60
2022-11-29T05:13:20.578Z,61.35
2022-11-29T05:14:41.772Z,33.67
2022-11-29T05:15:41.383Z,29.77
2022-11-29T05:16:46.514Z,29.30
2022-11-29T05:17:31.582Z,35.65
2022-11-29T05:18:26.393Z,31.70
2022-11-29T05:19:22.946Z,35.13
2022-11-29T05:20:26.265Z,31.75
2022-11-29T05:21:16.827Z,47.05
2022-11-29T05:22:19.558Z,35.90
2022-11-29T05:23:29.118Z,34.00
2022-11-29T05:24:31.590Z,38.17
2022-11-29T05:25:32.401Z,48.95
2022-11-29T05:26:17.760Z,42.30
2022-11-29T05:27:28.352Z,39.85
2022-11-29T05:28:10.335Z,43.63
2022-11-29T05:29:03.823Z,52.58
2022-11-29T05:29:46.226Z,54.05
2022-11-29T05:30:21.116Z,47.33
2022-11-29T05:31:23.795Z,50.67
2022-11-29T05:32:00.207Z,47.13
2022-11-29T05:33:01.086Z,34.33
2022-11-29T05:33:45.200Z,31.55
2022-11-29T05:34:19.910Z,34.10
2022-11-29T05:35:34.716Z,32.50
2022-11-29T05:36:25.184Z,35.70
2022-11-29T05:37:15.145Z,38.60
2022-11-29T05:37:52.069Z,37.00
2022-11-29T05:38:23.855Z,34.85
2022-11-29T05:39:33.196Z,43.70
2022-11-29T05:40:36.634Z,35.55
2022-11-29T05:41:50.064Z,36.33
2022-11-29T05:42:34.307Z,39.28
2022-11-29T05:43:12.252Z,29.02
2022-11-29T05:44:21.259Z,30.12
2022-11-29T05:45:03.069Z,33.65
2022-11-29T05:45:43.530Z,32.20
2022-11-29T05:46:39.976Z,36.55
2022-11-29T05:47:24.676Z,29.25
2022-11-29T05:48:37.755Z,29.52
2022-11-29T05:49:20.984Z,30.80
2022-11-29T05:50:05.334Z,30.95
2022-11-29T05:50:52.721Z,32.55
2022-11-29T05:51:58.396Z,27.05
2022-11-29T05:52:48.781Z,30.80
2022-11-29T05:53:43.491Z,29.02
2022-11-29T05:54:36.990Z,35.10
2022-11-29T05:55:15.187Z,32.33
2022-11-29T05:56:05.777Z,31.52
2022-11-29T05:57:02.112Z,28.27
2022-11-29T05:57:55.404Z,28.40
2022-11-29T05:58:52.528Z,38.33
2022-11-29T05:59:29.053Z,30.27
2022-11-29T06:00:03.155Z,26.83
2022-11-29T06:01:00.453Z,30.40
2022-11-29T06:01:59.484Z,31.12
2022-11-29T06:03:00.934Z,31.15
2022-11-29T06:03:53.524Z,28.62
2022-11-29T06:04:40.322Z,30.83
2022-11-29T06:05:30.674Z,34.17
2022-11-29T06:06:19.653Z,26.10
2022-11-29T06:07:38.800Z,28.77
2022-11-29T06:08:25.769Z,30.40
2022-11-29T06:09:21.946Z,33.38
2022-11-29T06:10:11.703Z,34.15
2022-11-29T06:11:06.358Z,25.83
2022-11-29T06:11:52.987Z,29.83
2022-11-29T06:12:26.881Z,30.67
2022-11-29T06:13:04.283Z,25.73
2022-11-29T06:13:50.988Z,27.65
2022-11-29T06:14:26.000Z,26.80
2022-11-29T06:15:19.948Z,30.85
2022-11-29T06:16:07.001Z,26.37
2022-11-29T06:16:57.307Z,28.08
2022-11-29T06:17:48.893Z,22.25
2022-11-29T06:19:11.948Z,21.52
2022-11-29T06:20:22.154Z,23.20
2022-11-29T06:21:13.194Z,24.80
2022-11-29T06:22:07.154Z,25.70
2022-11-29T06:22:42.123Z,23.42
2022-11-29T06:23:29.183Z,26.92
2022-11-29T06:24:36.357Z,23.65
2022-11-29T06:25:15.544Z,25.40
2022-11-29T06:26:07.271Z,27.33
2022-11-29T06:26:58.147Z,23.40
2022-11-29T06:27:49.763Z,27.42
2022-11-29T06:28:28.555Z,23.20
2022-11-29T06:29:03.802Z,27.45
2022-11-29T06:30:11.710Z,26.70
2022-11-29T06:30:49.301Z,27.00
2022-11-29T06:31:27.136Z,30.62
2022-11-29T06:32:30.507Z,29.73
2022-11-29T06:33:18.905Z,28.40
2022-11-29T06:34:15.044Z,27.73
2022-11-29T06:34:54.904Z,25.12
2022-11-29T06:35:46.410Z,28.15
2022-11-29T06:36:42.903Z,32.25
2022-11-29T06:37:31.505Z,28.38
2022-11-29T06:38:13.977Z,25.80
2022-11-29T06:38:46.049Z,28.45
2022-11-29T06:39:18.560Z,24.73
2022-11-29T06:39:50.720Z,27.17
2022-11-29T06:40:23.033Z,43.17
2022-11-29T06:41:01.540Z,28.58
2022-11-29T06:41:34.410Z,28.17
2022-11-29T06:42:06.289Z,31.65
2022-11-29T06:42:38.401Z,29.67
2022-11-29T06:43:10.495Z,33.60
2022-11-29T06:43:42.616Z,27.92
2022-11-29T06:44:14.937Z,30.30
2022-11-29T06:44:47.804Z,28.00
2022-11-29T06:45:21.830Z,27.65
2022-11-29T06:45:59.519Z,27.17
2022-11-29T06:46:48.162Z,29.23
2022-11-29T06:47:42.658Z,30.75
2022-11-29T06:48:25.680Z,32.42
2022-11-29T06:49:12.132Z,26.23
2022-11-29T06:49:49.728Z,26.85
2022-11-29T06:50:33.419Z,23.90
2022-11-29T06:51:17.410Z,26.20
2022-11-29T06:51:58.091Z,26.50
2022-11-29T06:52:54.678Z,25.88
2022-11-29T06:53:38.719Z,25.15
2022-11-29T06:54:19.066Z,31.87
2022-11-29T06:55:22.653Z,23.98
2022-11-29T06:56:32.945Z,44.38
2022-11-29T06:57:10.553Z,66.68
2022-11-29T06:57:48.352Z,97.07
2022-11-29T06:58:51.360Z,88.37
2022-11-29T07:00:16.355Z,64.55
2022-11-29T07:01:03.568Z,26.90
2022-11-29T07:01:58.422Z,26.65
2022-11-29T07:03:07.739Z,27.45
2022-11-29T07:03:42.455Z,28.38
2022-11-29T07:04:46.308Z,25.70
2022-11-29T07:05:27.701Z,22.00
2022-11-29T07:06:08.224Z,26.20
2022-11-29T07:07:19.635Z,26.87
2022-11-29T07:07:57.707Z,23.90
2022-11-29T07:08:29.811Z,25.88
2022-11-29T07:09:11.927Z,30.62
2022-11-29T07:09:46.063Z,26.35
2022-11-29T07:10:19.407Z,26.60
2022-11-29T07:10:54.121Z,27.83
2022-11-29T07:11:26.658Z,24.80
2022-11-29T07:11:59.061Z,26.12
2022-11-29T07:12:31.254Z,24.20
2022-11-29T07:13:03.927Z,24.63
2022-11-29T07:13:36.008Z,25.95
2022-11-29T07:14:09.854Z,24.67
2022-11-29T07:14:42.302Z,23.08
2022-11-29T07:15:20.701Z,24.42
2022-11-29T07:16:11.431Z,27.00
2022-11-29T07:16:59.748Z,24.35
2022-11-29T07:17:43.871Z,23.87
2022-11-29T07:18:39.177Z,26.35
2022-11-29T07:19:35.279Z,28.08
2022-11-29T07:20:25.706Z,28.08
2022-11-29T07:21:03.219Z,24.52
2022-11-29T07:21:53.341Z,25.80
2022-11-29T07:22:39.951Z,25.65
2022-11-29T07:23:29.816Z,25.02
2022-11-29T07:24:32.358Z,25.75
2022-11-29T07:25:38.134Z,32.33
2022-11-29T07:26:29.120Z,26.83
2022-11-29T07:27:13.372Z,25.45
2022-11-29T07:27:58.606Z,28.33
2022-11-29T07:28:43.122Z,29.23
2022-11-29T07:29:37.093Z,28.10
2022-11-29T07:30:19.058Z,26.60
2022-11-29T07:30:59.249Z,31.20
2022-11-29T07:31:55.222Z,27.77
2022-11-29T07:33:00.343Z,27.00
2022-11-29T07:33:48.094Z,28.55
2022-11-29T07:34:35.412Z,26.83
2022-11-29T07:35:15.534Z,20.37
2022-11-29T07:36:05.998Z,29.77
2022-11-29T07:37:22.369Z,32.38
2022-11-29T07:38:10.149Z,33.88
2022-11-29T07:38:55.663Z,35.65
2022-11-29T07:39:36.214Z,33.63
2022-11-29T07:40:35.937Z,33.20
2022-11-29T07:41:24.295Z,32.25
2022-11-29T07:42:08.038Z,31.35
2022-11-29T07:43:23.397Z,31.50
2022-11-29T07:44:36.384Z,31.58
2022-11-29T07:45:11.236Z,33.45
2022-11-29T07:45:43.262Z,29.15
2022-11-29T07:46:15.216Z,26.42
2022-11-29T07:46:47.237Z,33.20
2022-11-29T07:47:19.226Z,29.00
2022-11-29T07:47:51.612Z,30.92
2022-11-29T07:48:23.532Z,29.08
2022-11-29T07:48:55.703Z,32.35
2022-11-29T07:49:27.531Z,32.35
2022-11-29T07:49:59.390Z,31.75
2022-11-29T07:50:31.792Z,34.45
2022-11-29T07:51:03.846Z,31.85
2022-11-29T07:51:35.792Z,29.70
2022-11-29T07:52:14.740Z,33.65
2022-11-29T07:52:47.678Z,26.55
2022-11-29T07:53:21.787Z,28.92
2022-11-29T07:53:53.971Z,32.15
2022-11-29T07:54:26.745Z,29.27
2022-11-29T07:54:58.562Z,31.75
2022-11-29T07:55:34.328Z,28.33
2022-11-29T07:56:06.349Z,31.45
2022-11-29T07:56:38.178Z,37.28
2022-11-29T07:57:10.079Z,35.45
2022-11-29T07:57:41.939Z,34.67
2022-11-29T07:58:15.780Z,37.97
2022-11-29T07:58:47.789Z,29.63
2022-11-29T07:59:20.121Z,33.03
2022-11-29T07:59:52.258Z,37.45
2022-11-29T08:00:24.229Z,31.25
2022-11-29T08:00:56.416Z,33.15
2022-11-29T08:01:28.354Z,30.17
2022-11-29T08:02:00.364Z,32.53
2022-11-29T08:02:32.957Z,30.98
2022-11-29T08:03:05.284Z,33.25
2022-11-29T08:03:37.305Z,30.65
2022-11-29T08:04:09.518Z,30.25
2022-11-29T08:04:44.289Z,28.58
2022-11-29T08:05:17.099Z,29.15
2022-11-29T08:05:49.027Z,36.35
2022-11-29T08:06:26.574Z,34.33
2022-11-29T08:07:00.124Z,32.95
2022-11-29T08:07:35.443Z,28.90
2022-11-29T08:08:07.666Z,31.23
2022-11-29T08:08:43.949Z,28.55
2022-11-29T08:09:16.335Z,31.08
2022-11-29T08:09:48.302Z,29.40
2022-11-29T08:10:20.284Z,29.70
2022-11-29T08:10:52.099Z,26.52
2022-11-29T08:11:24.948Z,26.83
2022-11-29T08:11:56.827Z,28.25
2022-11-29T08:12:28.849Z,31.85
2022-11-29T08:13:00.715Z,28.73
2022-11-29T08:13:32.550Z,28.52
2022-11-29T08:14:05.403Z,26.75
2022-11-29T08:14:37.291Z,38.42
2022-11-29T08:15:09.713Z,38.45
2022-11-29T08:15:48.753Z,46.05
2022-11-29T08:16:20.610Z,34.05
2022-11-29T08:16:52.710Z,28.90
2022-11-29T08:17:25.886Z,26.17
2022-11-29T08:17:57.975Z,25.20
2022-11-29T08:18:29.789Z,22.50
2022-11-29T08:19:01.872Z,21.08
2022-11-29T08:19:33.690Z,30.98
2022-11-29T08:20:07.260Z,23.60
2022-11-29T08:20:41.278Z,25.83
2022-11-29T08:21:18.022Z,26.00
2022-11-29T08:21:51.147Z,26.75
2022-11-29T08:22:23.279Z,26.02
2022-11-29T08:22:59.657Z,27.17
2022-11-29T08:23:31.518Z,31.77
2022-11-29T08:24:03.392Z,24.55
2022-11-29T08:24:35.322Z,31.17
2022-11-29T08:25:09.004Z,31.30
2022-11-29T08:25:41.218Z,27.10
2022-11-29T08:26:13.343Z,25.73
2022-11-29T08:26:45.177Z,28.85
2022-11-29T08:27:17.053Z,25.90
2022-11-29T08:27:49.185Z,24.52
2022-11-29T08:28:21.169Z,24.30
2022-11-29T08:28:53.110Z,25.52
2022-11-29T08:29:25.293Z,23.10
2022-11-29T08:29:57.125Z,27.08
2022-11-29T08:30:28.932Z,24.08
2022-11-29T08:31:05.685Z,22.15
2022-11-29T08:31:37.635Z,20.55
2022-11-29T08:32:09.485Z,23.52
2022-11-29T08:32:41.324Z,23.12
2022-11-29T08:33:13.486Z,25.27
2022-11-29T08:33:45.350Z,20.98
2022-11-29T08:34:17.163Z,22.98
2022-11-29T08:34:49.216Z,23.00
2022-11-29T08:35:22.918Z,20.17
2022-11-29T08:35:54.775Z,20.30
2022-11-29T08:36:26.593Z,28.67
2022-11-29T08:36:58.454Z,25.58
2022-11-29T08:37:30.335Z,26.12
2022-11-29T08:38:03.868Z,24.85
2022-11-29T08:38:37.212Z,25.77
2022-11-29T08:39:09.807Z,27.83
2022-11-29T08:39:41.711Z,27.62
2022-11-29T08:40:14.454Z,24.55
2022-11-29T08:40:46.281Z,23.52
2022-11-29T08:41:18.503Z,24.33
2022-11-29T08:41:50.440Z,27.13
2022-11-29T08:42:22.696Z,28.77
2022-11-29T08:42:58.509Z,26.33
2022-11-29T08:43:31.130Z,28.70
2022-11-29T08:44:05.156Z,27.83
2022-11-29T08:44:37.159Z,27.08
2022-11-29T08:45:09.850Z,25.83
2022-11-29T08:45:41.773Z,30.20
2022-11-29T08:46:18.245Z,30.98
2022-11-29T08:47:09.510Z,27.80
2022-11-29T08:47:42.463Z,25.90
2022-11-29T08:48:14.700Z,22.87
2022-11-29T08:48:47.663Z,26.35
2022-11-29T08:49:19.850Z,28.75
2022-11-29T08:50:03.858Z,27.55
2022-11-29T08:50:35.696Z,24.75
2022-11-29T08:51:07.611Z,24.70
2022-11-29T08:51:39.431Z,26.23
2022-11-29T08:52:31.182Z,23.23
2022-11-29T08:53:21.793Z,24.80
2022-11-29T08:53:53.704Z,21.52
2022-11-29T08:54:25.829Z,24.65
2022-11-29T08:55:02.882Z,26.52
2022-11-29T08:55:39.644Z,37.30
2022-11-29T08:57:38.608Z,33.15
2022-11-29T08:58:09.095Z,28.40
2022-11-29T08:58:41.294Z,23.05
2022-11-29T08:59:13.179Z,25.40
2022-11-29T08:59:45.322Z,22.13
2022-11-29T09:00:18.832Z,20.95
2022-11-29T09:00:50.672Z,22.90
2022-11-29T09:01:22.683Z,24.10
2022-11-29T09:01:55.142Z,28.00
2022-11-29T09:02:27.195Z,21.83
2022-11-29T09:03:19.523Z,27.48
2022-11-29T09:04:00.475Z,28.17
2022-11-29T09:04:32.311Z,24.70